Time;durP1;ratioP1;P1;durP2;ratioP2;P2;SDS_P1;SDS_P2;PMS_P1;PMS_P2;Temp;Humidity;BMP_temperature;BMP_pressure;BME280_temperature;BME280_humidity;BME280_pressure;Samples;Min_cycle;Max_cycle;Signal;HPM_P1;HPM_P2
2023/12/30 00:00:23;;;;;;;3.17;1.00;;;10.10;99.90;;;;;;5036356;28;20178;-69
2023/12/30 00:02:48;;;;;;;2.72;0.82;;;10.10;99.90;;;;;;5036999;28;20213;-69
2023/12/30 00:05:15;;;;;;;2.88;1.00;;;10.10;99.90;;;;;;5036755;28;20280;-69
2023/12/30 00:07:40;;;;;;;3.50;0.98;;;10.20;99.90;;;;;;5037822;28;20291;-69
2023/12/30 00:10:09;;;;;;;1.70;0.88;;;10.20;99.90;;;;;;5036025;28;20241;-69
2023/12/30 00:12:39;;;;;;;4.20;1.00;;;10.20;99.90;;;;;;5047370;28;20182;-69
2023/12/30 00:15:05;;;;;;;4.25;1.05;;;10.20;99.90;;;;;;5045487;28;20199;-69
2023/12/30 00:17:31;;;;;;;4.68;1.10;;;10.20;99.90;;;;;;5035604;28;20197;-69
2023/12/30 00:19:59;;;;;;;3.53;1.20;;;10.20;99.90;;;;;;5033785;28;20178;-68
2023/12/30 00:22:24;;;;;;;4.38;1.40;;;10.30;99.90;;;;;;5034617;28;20210;-69
2023/12/30 00:24:52;;;;;;;3.60;1.40;;;10.30;99.90;;;;;;5037042;28;20170;-69
2023/12/30 00:27:18;;;;;;;3.83;1.27;;;10.40;99.90;;;;;;5034280;28;20183;-69
2023/12/30 00:29:44;;;;;;;4.50;1.20;;;10.40;99.90;;;;;;5052293;28;20236;-67
2023/12/30 00:32:10;;;;;;;2.53;1.02;;;10.50;99.90;;;;;;5029255;28;20179;-69
2023/12/30 00:34:36;;;;;;;4.28;1.00;;;10.60;99.90;;;;;;5031372;28;20208;-70
2023/12/30 00:37:01;;;;;;;3.92;1.27;;;10.60;99.90;;;;;;5035845;28;20213;-69
2023/12/30 00:39:27;;;;;;;4.30;1.20;;;10.60;99.90;;;;;;5025732;28;20170;-70
2023/12/30 00:41:53;;;;;;;4.93;1.30;;;10.60;99.90;;;;;;5036517;28;20182;-69
2023/12/30 00:44:20;;;;;;;4.05;1.30;;;10.60;99.90;;;;;;5028135;28;20182;-69
2023/12/30 00:46:46;;;;;;;3.58;1.40;;;10.70;99.90;;;;;;5034690;28;20186;-69
2023/12/30 00:49:15;;;;;;;1.67;0.80;;;10.70;99.90;;;;;;5033616;28;20262;-69
2023/12/30 00:51:40;;;;;;;2.25;0.68;;;10.70;99.90;;;;;;5032069;28;20178;-70
2023/12/30 00:54:06;;;;;;;5.57;1.20;;;10.80;99.90;;;;;;5034643;28;20198;-69
2023/12/30 00:56:31;;;;;;;4.82;1.15;;;10.70;99.90;;;;;;5034673;28;20222;-70
2023/12/30 00:58:57;;;;;;;2.30;0.95;;;10.80;99.90;;;;;;5034796;28;20189;-70
2023/12/30 01:01:23;;;;;;;3.22;0.88;;;10.80;99.90;;;;;;5038211;28;20197;-70
2023/12/30 01:03:48;;;;;;;2.58;0.90;;;10.70;99.90;;;;;;5033494;28;20283;-69
2023/12/30 01:06:14;;;;;;;5.57;1.30;;;10.70;99.90;;;;;;5033885;28;20190;-70
2023/12/30 01:08:39;;;;;;;3.88;1.20;;;10.70;99.90;;;;;;5032991;28;20178;-70
2023/12/30 01:11:05;;;;;;;3.45;1.17;;;10.80;99.90;;;;;;5043046;28;20206;-70
2023/12/30 01:13:33;;;;;;;3.20;0.85;;;10.70;99.90;;;;;;5034194;28;20206;-70
2023/12/30 01:15:59;;;;;;;2.83;1.00;;;10.70;99.90;;;;;;5033132;28;20177;-69
2023/12/30 01:18:25;;;;;;;4.70;1.30;;;10.70;99.90;;;;;;5032336;28;20220;-69
2023/12/30 01:20:55;;;;;;;4.57;1.20;;;10.70;99.90;;;;;;5035363;28;20236;-70
2023/12/30 01:23:20;;;;;;;5.68;1.20;;;10.70;99.90;;;;;;5043787;28;20193;-67
2023/12/30 01:25:51;;;;;;;3.05;1.33;;;10.70;99.90;;;;;;5033853;28;20194;-70
2023/12/30 01:28:16;;;;;;;6.53;1.50;;;10.70;99.90;;;;;;5034478;28;20260;-70
2023/12/30 01:30:44;;;;;;;3.55;1.15;;;10.70;99.90;;;;;;5028654;28;20187;-68
2023/12/30 01:33:12;;;;;;;4.70;1.20;;;10.70;99.90;;;;;;5030055;28;20228;-70
2023/12/30 01:35:38;;;;;;;5.40;1.20;;;10.70;99.90;;;;;;5040737;28;20174;-70
2023/12/30 01:38:03;;;;;;;3.20;1.30;;;10.70;99.90;;;;;;5035393;28;20235;-69
2023/12/30 01:40:29;;;;;;;4.38;1.30;;;10.70;99.90;;;;;;5030593;28;20229;-69
2023/12/30 01:42:54;;;;;;;3.92;1.23;;;10.80;99.90;;;;;;5033716;28;20235;-69
2023/12/30 01:45:20;;;;;;;4.72;0.90;;;10.70;99.90;;;;;;5031337;28;20189;-69
2023/12/30 01:47:48;;;;;;;2.55;0.90;;;10.70;99.90;;;;;;5034410;28;20205;-69
2023/12/30 01:50:17;;;;;;;2.80;1.17;;;10.70;99.90;;;;;;5030245;28;20204;-69
2023/12/30 01:52:47;;;;;;;2.88;1.00;;;10.70;99.90;;;;;;5034298;28;20202;-69
2023/12/30 01:55:19;;;;;;;4.30;1.08;;;10.70;99.90;;;;;;5036739;28;20210;-70
2023/12/30 01:57:48;;;;;;;4.03;1.10;;;10.70;99.90;;;;;;5034928;28;20166;-69
2023/12/30 02:00:21;;;;;;;3.72;0.95;;;10.70;99.90;;;;;;5031193;28;20170;-68
2023/12/30 02:02:48;;;;;;;5.13;1.02;;;10.70;99.90;;;;;;5050259;28;20198;-69
2023/12/30 02:05:17;;;;;;;2.13;0.73;;;10.70;99.90;;;;;;5033746;28;20174;-69
2023/12/30 02:07:47;;;;;;;2.92;0.80;;;10.70;99.90;;;;;;5032106;28;20269;-68
2023/12/30 02:10:13;;;;;;;2.25;0.80;;;10.70;99.90;;;;;;5032705;28;20281;-69
2023/12/30 02:12:38;;;;;;;2.72;0.80;;;10.70;99.90;;;;;;5041502;28;20220;-69
2023/12/30 02:15:22;;;;;;;2.45;0.73;;;10.70;99.90;;;;;;5033446;28;20269;-69
2023/12/30 02:17:51;;;;;;;2.47;0.93;;;10.60;99.90;;;;;;5034221;28;20277;-69
2023/12/30 02:20:18;;;;;;;1.92;1.00;;;10.60;99.90;;;;;;5034115;28;20180;-69
2023/12/30 02:22:47;;;;;;;4.43;1.10;;;10.60;99.90;;;;;;5034344;28;20178;-69
2023/12/30 02:25:20;;;;;;;3.17;1.08;;;10.60;99.90;;;;;;5034500;28;20225;-69
2023/12/30 02:27:46;;;;;;;5.07;1.00;;;10.60;99.90;;;;;;5037395;28;20261;-69
2023/12/30 02:30:17;;;;;;;3.97;1.20;;;10.60;99.90;;;;;;5028640;28;20201;-68
2023/12/30 02:32:45;;;;;;;2.63;0.90;;;10.60;99.90;;;;;;5048078;28;20263;-69
2023/12/30 02:35:13;;;;;;;4.93;1.10;;;10.60;99.90;;;;;;5032707;28;20174;-69
2023/12/30 02:37:41;;;;;;;2.92;1.00;;;10.60;99.90;;;;;;5048873;28;20170;-69
2023/12/30 02:40:07;;;;;;;1.90;0.82;;;10.60;99.90;;;;;;5029916;28;20198;-69
2023/12/30 02:42:33;;;;;;;3.28;0.90;;;10.60;99.90;;;;;;5033536;28;21457;-68
2023/12/30 02:44:58;;;;;;;2.92;1.25;;;10.60;99.90;;;;;;5031584;28;20174;-69
2023/12/30 02:47:24;;;;;;;2.42;0.90;;;10.60;99.90;;;;;;5032072;28;20201;-68
2023/12/30 02:49:50;;;;;;;2.90;1.00;;;10.60;99.90;;;;;;5033262;28;20178;-69
2023/12/30 02:52:15;;;;;;;3.20;0.82;;;10.60;99.90;;;;;;5034455;28;20188;-69
2023/12/30 02:54:41;;;;;;;3.85;1.20;;;10.60;99.90;;;;;;5035055;28;20295;-68
2023/12/30 02:57:08;;;;;;;3.78;1.10;;;10.70;99.90;;;;;;5030191;28;20181;-69
2023/12/30 02:59:37;;;;;;;3.05;0.98;;;10.60;99.90;;;;;;5034413;28;20181;-67
2023/12/30 03:02:02;;;;;;;3.85;1.08;;;10.60;99.90;;;;;;5043136;28;20228;-63
2023/12/30 03:04:30;;;;;;;2.47;1.17;;;10.70;99.90;;;;;;5053451;28;20288;-64
2023/12/30 03:06:56;;;;;;;2.85;1.10;;;10.70;99.90;;;;;;5038731;28;20186;-63
2023/12/30 03:09:21;;;;;;;3.70;1.00;;;10.70;99.90;;;;;;5040351;28;20202;-65
2023/12/30 03:11:47;;;;;;;4.10;1.00;;;10.70;99.90;;;;;;5039696;28;20252;-64
2023/12/30 03:14:13;;;;;;;3.40;0.90;;;10.70;99.90;;;;;;5041429;28;20209;-64
2023/12/30 03:16:40;;;;;;;3.28;1.00;;;10.70;99.90;;;;;;5042993;28;20209;-64
2023/12/30 03:19:11;;;;;;;3.28;1.00;;;10.70;99.90;;;;;;5039810;28;20170;-63
2023/12/30 03:21:36;;;;;;;3.15;0.93;;;10.70;99.90;;;;;;5038782;28;20170;-63
2023/12/30 03:24:02;;;;;;;5.88;0.95;;;10.70;99.90;;;;;;5038816;28;20201;-63
2023/12/30 03:26:28;;;;;;;2.92;0.80;;;10.70;99.90;;;;;;5040651;28;20174;-63
2023/12/30 03:28:55;;;;;;;2.88;0.95;;;10.80;99.90;;;;;;5040018;28;20188;-63
2023/12/30 03:31:25;;;;;;;3.88;1.10;;;10.70;99.90;;;;;;5051503;28;20213;-63
2023/12/30 03:33:51;;;;;;;2.92;0.80;;;10.80;99.90;;;;;;5038012;28;20202;-63
2023/12/30 03:36:19;;;;;;;2.25;1.05;;;10.80;99.90;;;;;;5039734;28;20181;-63
2023/12/30 03:38:49;;;;;;;2.78;0.90;;;10.80;99.90;;;;;;5039629;28;20204;-64
2023/12/30 03:41:15;;;;;;;2.95;1.00;;;10.80;99.90;;;;;;5039343;28;20265;-63
2023/12/30 03:43:41;;;;;;;2.55;1.00;;;10.80;99.90;;;;;;5053773;28;20189;-64
2023/12/30 03:46:06;;;;;;;4.55;0.95;;;10.80;99.90;;;;;;5038455;28;20209;-64
2023/12/30 03:48:32;;;;;;;3.85;1.00;;;10.90;99.90;;;;;;5039169;28;20174;-62
2023/12/30 03:51:01;;;;;;;4.88;1.00;;;10.90;99.90;;;;;;5038081;28;20204;-64
2023/12/30 03:53:28;;;;;;;2.65;1.05;;;10.90;99.90;;;;;;5048936;28;20202;-64
2023/12/30 03:55:54;;;;;;;2.42;0.88;;;10.90;99.90;;;;;;5038923;28;20181;-64
2023/12/30 03:58:20;;;;;;;2.88;1.10;;;10.90;99.90;;;;;;5043529;28;20173;-64
2023/12/30 04:00:45;;;;;;;3.60;1.00;;;10.90;99.90;;;;;;5042548;28;20190;-63
2023/12/30 04:03:13;;;;;;;3.42;0.90;;;10.90;99.90;;;;;;5037701;28;20188;-63
2023/12/30 04:05:41;;;;;;;2.92;1.00;;;10.90;99.90;;;;;;5042899;28;20178;-62
2023/12/30 04:08:07;;;;;;;2.50;0.93;;;10.90;99.90;;;;;;5032532;28;20240;-63
2023/12/30 04:10:35;;;;;;;4.60;1.35;;;10.90;99.90;;;;;;5033238;28;20171;-63
2023/12/30 04:13:03;;;;;;;2.47;0.90;;;10.90;99.90;;;;;;5036271;28;20198;-63
2023/12/30 04:15:31;;;;;;;3.22;0.80;;;10.90;99.90;;;;;;5045758;28;20189;-63
2023/12/30 04:18:01;;;;;;;3.33;1.08;;;11.00;99.90;;;;;;5032479;28;20189;-64
2023/12/30 04:20:26;;;;;;;3.05;0.90;;;10.90;99.90;;;;;;5036741;28;20184;-64
2023/12/30 04:22:54;;;;;;;2.25;0.70;;;10.90;99.90;;;;;;5036624;28;20221;-64
2023/12/30 04:25:20;;;;;;;2.13;0.77;;;11.00;99.90;;;;;;5035742;28;20182;-64
2023/12/30 04:27:46;;;;;;;3.05;0.90;;;10.90;99.90;;;;;;5030112;28;20235;-64
2023/12/30 04:30:14;;;;;;;4.10;0.98;;;11.00;99.90;;;;;;5050637;28;20182;-64
2023/12/30 04:32:39;;;;;;;4.75;1.23;;;11.00;99.90;;;;;;5051371;28;20178;-64
2023/12/30 04:35:05;;;;;;;3.25;1.00;;;11.00;99.90;;;;;;5038248;28;20189;-64
2023/12/30 04:37:31;;;;;;;3.80;1.15;;;11.00;99.90;;;;;;5036828;28;20201;-64
2023/12/30 04:39:57;;;;;;;3.90;0.95;;;11.00;99.90;;;;;;5036730;28;20299;-64
2023/12/30 04:42:22;;;;;;;2.97;0.80;;;10.90;99.90;;;;;;5040592;28;20174;-64
2023/12/30 04:44:48;;;;;;;3.05;0.88;;;10.90;99.90;;;;;;5035861;28;20178;-64
2023/12/30 04:47:13;;;;;;;3.20;0.90;;;10.90;99.90;;;;;;5049633;28;20185;-64
2023/12/30 04:49:41;;;;;;;3.42;1.17;;;10.90;99.90;;;;;;5035299;28;20265;-64
2023/12/30 04:52:07;;;;;;;2.08;0.73;;;10.90;99.90;;;;;;5035278;28;20416;-64
2023/12/30 04:54:33;;;;;;;4.07;0.90;;;10.90;99.90;;;;;;5035809;28;20349;-64
2023/12/30 04:56:58;;;;;;;2.22;0.90;;;10.90;99.90;;;;;;5051665;28;20189;-64
2023/12/30 04:59:27;;;;;;;3.20;0.88;;;10.90;99.90;;;;;;5033241;28;20179;-64
2023/12/30 05:01:53;;;;;;;3.20;1.27;;;10.90;99.90;;;;;;5032983;28;20406;-64
2023/12/30 05:04:19;;;;;;;3.33;0.90;;;10.90;99.90;;;;;;5020562;28;20190;-64
2023/12/30 05:06:45;;;;;;;3.00;1.10;;;10.80;99.90;;;;;;5036814;28;20192;-64
2023/12/30 05:09:14;;;;;;;3.63;1.30;;;10.80;99.90;;;;;;5035030;28;20210;-63
2023/12/30 05:11:43;;;;;;;4.50;0.90;;;10.80;99.90;;;;;;5033718;28;20193;-64
2023/12/30 05:14:08;;;;;;;3.00;0.85;;;10.90;99.90;;;;;;5032020;28;20212;-64
2023/12/30 05:16:42;;;;;;;3.60;1.15;;;10.80;99.90;;;;;;5035297;28;20190;-64
2023/12/30 05:19:10;;;;;;;3.20;0.90;;;10.80;99.90;;;;;;5028748;28;20190;-66
2023/12/30 05:21:36;;;;;;;2.28;0.90;;;10.70;99.90;;;;;;5034699;28;20174;-64
2023/12/30 05:24:06;;;;;;;2.22;0.80;;;10.80;99.90;;;;;;5035100;28;20224;-64
2023/12/30 05:26:34;;;;;;;2.60;0.90;;;10.90;99.90;;;;;;5035844;28;20174;-64
2023/12/30 05:28:59;;;;;;;4.15;1.00;;;10.90;99.90;;;;;;5037494;28;20268;-63
2023/12/30 05:31:27;;;;;;;2.05;0.80;;;11.00;99.90;;;;;;5035504;28;20289;-63
2023/12/30 05:33:53;;;;;;;4.97;0.98;;;10.90;99.90;;;;;;5034386;28;20202;-64
2023/12/30 05:36:21;;;;;;;2.28;0.95;;;10.90;99.90;;;;;;5034565;28;20178;-63
2023/12/30 05:38:49;;;;;;;2.88;1.00;;;10.90;99.90;;;;;;5035503;28;20204;-63
2023/12/30 05:41:14;;;;;;;3.08;0.80;;;10.90;99.90;;;;;;5036700;28;20178;-63
2023/12/30 05:43:41;;;;;;;5.05;1.10;;;11.00;99.90;;;;;;5033948;28;20188;-64
2023/12/30 05:46:14;;;;;;;2.05;0.80;;;11.00;99.90;;;;;;5034419;28;20198;-63
2023/12/30 05:48:42;;;;;;;4.57;1.25;;;11.00;99.90;;;;;;5033324;28;20250;-63
2023/12/30 05:51:09;;;;;;;5.70;1.20;;;11.00;99.90;;;;;;5048881;28;20208;-63
2023/12/30 05:53:35;;;;;;;3.63;1.15;;;10.90;99.90;;;;;;5034683;28;20206;-63
2023/12/30 05:56:01;;;;;;;3.60;1.30;;;11.00;99.90;;;;;;5041181;28;20247;-64
2023/12/30 05:58:29;;;;;;;4.35;1.30;;;11.00;99.90;;;;;;5051395;28;20166;-64
2023/12/30 06:00:54;;;;;;;4.20;1.15;;;11.00;99.90;;;;;;5051447;28;20190;-64
2023/12/30 06:03:22;;;;;;;7.50;1.35;;;11.00;99.90;;;;;;5048020;28;20204;-64
2023/12/30 06:05:48;;;;;;;3.15;0.80;;;10.90;99.90;;;;;;5031629;28;20183;-63
2023/12/30 06:08:13;;;;;;;2.58;0.80;;;10.90;99.90;;;;;;5031198;28;20532;-64
2023/12/30 06:10:39;;;;;;;4.60;1.00;;;10.90;99.90;;;;;;5046202;28;20185;-63
2023/12/30 06:13:04;;;;;;;3.92;1.00;;;10.80;99.90;;;;;;5034296;28;20206;-64
2023/12/30 06:15:33;;;;;;;2.33;0.70;;;10.80;99.90;;;;;;5051343;28;20198;-63
2023/12/30 06:17:58;;;;;;;6.25;1.10;;;10.90;99.90;;;;;;5051039;28;20195;-63
2023/12/30 06:20:26;;;;;;;4.72;1.15;;;10.80;99.90;;;;;;5051990;28;20186;-64
2023/12/30 06:22:54;;;;;;;3.67;0.93;;;10.80;99.90;;;;;;5033555;28;20198;-63
2023/12/30 06:25:20;;;;;;;4.07;0.93;;;10.70;99.90;;;;;;5027490;28;20375;-64
2023/12/30 06:27:45;;;;;;;4.50;1.13;;;10.70;99.90;;;;;;5030014;28;20182;-63
2023/12/30 06:30:13;;;;;;;3.80;0.90;;;10.80;99.90;;;;;;5033695;28;20205;-64
2023/12/30 06:32:39;;;;;;;3.03;0.85;;;10.70;99.90;;;;;;5034150;28;20268;-64
2023/12/30 06:35:05;;;;;;;3.80;1.10;;;10.70;99.90;;;;;;5033152;28;20265;-64
2023/12/30 06:37:30;;;;;;;4.03;1.10;;;10.60;99.90;;;;;;5035571;28;20212;-64
2023/12/30 06:39:58;;;;;;;3.40;1.02;;;10.60;99.90;;;;;;5035912;28;20173;-64
2023/12/30 06:42:26;;;;;;;5.40;1.40;;;10.60;99.90;;;;;;5030216;28;20166;-64
2023/12/30 06:44:52;;;;;;;3.63;0.98;;;10.60;99.90;;;;;;5049417;28;20205;-63
2023/12/30 06:47:17;;;;;;;3.10;0.80;;;10.60;99.90;;;;;;5032596;28;20182;-63
2023/12/30 06:49:45;;;;;;;5.43;1.45;;;10.60;99.90;;;;;;5033172;28;20174;-63
2023/12/30 06:52:11;;;;;;;3.10;1.13;;;10.60;99.90;;;;;;5027454;28;20171;-63
2023/12/30 06:54:36;;;;;;;3.08;1.08;;;10.60;99.90;;;;;;5032963;28;20197;-64
2023/12/30 06:57:04;;;;;;;5.22;1.30;;;10.60;99.90;;;;;;5034153;28;20189;-64
2023/12/30 06:59:30;;;;;;;3.92;1.00;;;10.60;99.90;;;;;;5027931;28;20170;-64
2023/12/30 07:01:56;;;;;;;8.18;1.58;;;10.60;99.90;;;;;;5029979;28;20179;-63
2023/12/30 07:04:26;;;;;;;3.63;0.93;;;10.60;99.90;;;;;;5032060;28;20422;-64
2023/12/30 07:06:54;;;;;;;2.47;0.90;;;10.60;99.90;;;;;;5033760;28;20209;-64
2023/12/30 07:09:20;;;;;;;3.90;1.00;;;10.60;99.90;;;;;;5034086;28;20269;-64
2023/12/30 07:11:46;;;;;;;2.85;1.00;;;10.60;99.90;;;;;;5033189;28;20257;-64
2023/12/30 07:14:14;;;;;;;2.28;0.80;;;10.60;99.90;;;;;;5034680;28;20202;-64
2023/12/30 07:16:40;;;;;;;5.90;1.00;;;10.60;99.90;;;;;;5032908;28;20216;-64
2023/12/30 07:19:06;;;;;;;2.92;0.93;;;10.50;99.90;;;;;;5033303;28;20178;-63
2023/12/30 07:21:31;;;;;;;3.17;0.88;;;10.50;99.90;;;;;;5049290;28;20244;-64
2023/12/30 07:23:59;;;;;;;2.53;0.77;;;10.40;99.90;;;;;;5033578;28;20181;-64
2023/12/30 07:26:29;;;;;;;2.60;0.85;;;10.40;99.90;;;;;;5034020;28;20264;-64
2023/12/30 07:28:57;;;;;;;5.93;1.20;;;10.40;99.90;;;;;;5033372;28;20289;-63
2023/12/30 07:31:22;;;;;;;4.20;1.00;;;10.50;99.90;;;;;;5032511;28;20245;-63
2023/12/30 07:33:49;;;;;;;3.10;0.93;;;10.40;99.90;;;;;;5032654;28;20461;-64
2023/12/30 07:36:19;;;;;;;2.22;0.90;;;10.40;99.90;;;;;;5033723;28;20281;-64
2023/12/30 07:38:45;;;;;;;5.47;0.88;;;10.50;99.90;;;;;;5033908;28;20174;-64
2023/12/30 07:41:14;;;;;;;2.30;1.00;;;10.50;99.90;;;;;;5033887;28;20244;-64
2023/12/30 07:43:42;;;;;;;3.47;0.80;;;10.40;99.90;;;;;;5036941;28;20225;-64
2023/12/30 07:46:11;;;;;;;4.55;1.15;;;10.40;99.90;;;;;;5035912;28;20185;-64
2023/12/30 07:48:36;;;;;;;2.60;0.57;;;10.40;99.90;;;;;;5023762;28;20536;-63
2023/12/30 07:51:04;;;;;;;2.72;0.80;;;10.40;99.90;;;;;;5017651;28;20269;-66
2023/12/30 07:53:32;;;;;;;2.60;0.70;;;10.40;99.90;;;;;;5029897;28;20355;-65
2023/12/30 07:56:01;;;;;;;1.55;0.70;;;10.40;99.90;;;;;;5036562;28;20213;-65
2023/12/30 07:58:31;;;;;;;2.30;0.73;;;10.50;99.90;;;;;;5037555;28;20170;-65
2023/12/30 08:00:57;;;;;;;1.58;0.80;;;10.50;99.90;;;;;;5036705;28;20167;-66
2023/12/30 08:03:25;;;;;;;3.10;0.68;;;10.50;99.90;;;;;;5037416;28;20204;-65
2023/12/30 08:05:51;;;;;;;1.90;0.80;;;10.50;99.90;;;;;;5031048;28;20190;-65
2023/12/30 08:08:16;;;;;;;4.00;1.20;;;10.60;99.90;;;;;;5033870;28;20170;-63
2023/12/30 08:10:44;;;;;;;2.50;0.90;;;10.60;99.90;;;;;;5036876;28;20174;-62
2023/12/30 08:13:16;;;;;;;1.63;0.70;;;10.60;99.90;;;;;;5036012;28;20202;-63
2023/12/30 08:15:41;;;;;;;2.95;1.00;;;10.60;99.90;;;;;;5036165;28;20178;-62
2023/12/30 08:18:07;;;;;;;2.38;1.00;;;10.60;99.90;;;;;;5033590;28;20251;-62
2023/12/30 08:20:35;;;;;;;4.30;1.20;;;10.50;99.90;;;;;;5040401;28;20176;-63
2023/12/30 08:23:03;;;;;;;3.35;0.90;;;10.50;99.90;;;;;;5051522;28;20297;-62
2023/12/30 08:25:29;;;;;;;2.13;0.80;;;10.50;99.90;;;;;;5036715;28;20449;-62
2023/12/30 08:27:54;;;;;;;2.00;0.70;;;10.50;99.90;;;;;;5038028;28;20174;-62
2023/12/30 08:30:22;;;;;;;3.85;1.02;;;10.40;99.90;;;;;;5035978;28;20181;-62
2023/12/30 08:32:50;;;;;;;2.50;1.13;;;10.50;99.90;;;;;;5036625;28;20281;-63
2023/12/30 08:35:16;;;;;;;2.90;1.02;;;10.50;99.90;;;;;;5036778;28;20166;-63
2023/12/30 08:37:43;;;;;;;5.85;1.10;;;10.50;99.90;;;;;;5033332;28;20185;-63
2023/12/30 08:40:10;;;;;;;5.30;1.20;;;10.50;99.90;;;;;;5035621;28;20192;-63
2023/12/30 08:42:37;;;;;;;3.25;1.30;;;10.50;99.90;;;;;;5052825;28;20174;-63
2023/12/30 08:45:06;;;;;;;3.42;1.00;;;10.50;99.90;;;;;;5052741;28;20170;-64
2023/12/30 08:47:33;;;;;;;3.95;1.40;;;10.60;99.90;;;;;;5033203;28;20293;-63
2023/12/30 08:49:59;;;;;;;6.82;1.30;;;10.60;99.90;;;;;;5046357;28;20174;-63
2023/12/30 08:52:29;;;;;;;3.83;1.35;;;10.60;99.90;;;;;;5036366;28;20184;-64
2023/12/30 08:54:57;;;;;;;3.55;1.27;;;10.70;99.90;;;;;;5035447;28;20215;-64
2023/12/30 08:57:22;;;;;;;3.70;1.05;;;10.60;99.90;;;;;;5036147;28;20182;-63
2023/12/30 08:59:48;;;;;;;7.35;1.40;;;10.70;99.90;;;;;;5035724;28;20170;-63
2023/12/30 09:02:13;;;;;;;3.00;1.10;;;10.70;99.90;;;;;;5035667;28;20180;-64
2023/12/30 09:04:41;;;;;;;2.97;1.02;;;10.80;99.90;;;;;;5052494;28;20192;-64
2023/12/30 09:07:07;;;;;;;4.22;1.10;;;10.80;99.90;;;;;;5052896;28;20293;-64
2023/12/30 09:09:32;;;;;;;5.63;1.40;;;10.90;99.90;;;;;;5052813;28;20237;-64
2023/12/30 09:11:58;;;;;;;5.57;1.27;;;11.00;99.90;;;;;;5052375;28;20180;-62
2023/12/30 09:14:24;;;;;;;3.75;1.15;;;11.00;99.90;;;;;;5051822;28;20206;-61
2023/12/30 09:16:49;;;;;;;2.63;1.00;;;11.00;99.90;;;;;;5035902;28;20190;-63
2023/12/30 09:19:15;;;;;;;4.28;1.27;;;11.10;99.90;;;;;;5035428;28;20276;-63
2023/12/30 09:21:41;;;;;;;2.28;1.00;;;11.10;99.90;;;;;;5035727;28;20281;-63
2023/12/30 09:24:09;;;;;;;2.67;1.25;;;11.20;99.90;;;;;;5035675;28;20223;-64
2023/12/30 09:26:37;;;;;;;2.75;1.10;;;11.30;99.90;;;;;;5035817;28;20170;-64
2023/12/30 09:29:02;;;;;;;4.22;1.20;;;11.40;99.90;;;;;;5035739;28;20205;-64
2023/12/30 09:31:30;;;;;;;4.25;1.40;;;11.50;99.90;;;;;;5034707;28;20197;-62
2023/12/30 09:34:00;;;;;;;3.65;1.08;;;11.60;99.90;;;;;;5035193;28;20201;-62
2023/12/30 09:36:28;;;;;;;2.75;1.15;;;11.50;99.90;;;;;;5039915;28;20185;-63
2023/12/30 09:38:56;;;;;;;3.70;1.25;;;11.50;99.90;;;;;;5063401;28;20206;-64
2023/12/30 09:41:24;;;;;;;3.35;1.10;;;11.60;99.90;;;;;;5035407;28;20280;-62
2023/12/30 09:43:53;;;;;;;3.15;1.00;;;11.70;99.90;;;;;;5035288;28;20190;-63
2023/12/30 09:46:21;;;;;;;3.05;1.00;;;11.70;99.90;;;;;;5035325;28;20181;-63
2023/12/30 09:48:51;;;;;;;3.30;1.10;;;11.70;99.90;;;;;;5044169;28;20201;-63
2023/12/30 09:51:16;;;;;;;4.30;1.30;;;11.80;99.90;;;;;;5023162;28;20174;-63
2023/12/30 09:53:44;;;;;;;4.57;1.23;;;11.90;99.90;;;;;;5020348;28;20204;-63
2023/12/30 09:56:11;;;;;;;2.47;1.17;;;11.90;99.90;;;;;;5051213;28;20284;-62
2023/12/30 09:58:40;;;;;;;4.63;1.38;;;11.90;99.90;;;;;;5037704;28;20170;-62
2023/12/30 10:01:05;;;;;;;2.75;1.20;;;11.90;99.90;;;;;;5035838;28;20200;-63
2023/12/30 10:03:32;;;;;;;3.33;1.10;;;11.90;99.90;;;;;;5049570;28;20204;-63
2023/12/30 10:06:03;;;;;;;2.75;1.00;;;11.90;99.90;;;;;;5034246;28;20178;-63
2023/12/30 10:08:32;;;;;;;2.38;1.02;;;12.00;99.90;;;;;;5035029;28;20239;-63
2023/12/30 10:11:00;;;;;;;2.60;1.08;;;11.90;99.90;;;;;;5035129;28;20178;-63
2023/12/30 10:13:26;;;;;;;2.38;0.90;;;12.00;99.90;;;;;;5041923;28;20204;-64
2023/12/30 10:15:53;;;;;;;4.03;1.25;;;11.90;99.90;;;;;;5034585;28;20539;-63
2023/12/30 10:18:22;;;;;;;4.70;1.40;;;12.00;99.90;;;;;;5031361;28;20190;-63
2023/12/30 10:20:54;;;;;;;6.32;2.03;;;12.10;99.90;;;;;;5034232;28;20177;-63
2023/12/30 10:23:21;;;;;;;2.70;0.95;;;12.20;99.90;;;;;;5033259;28;20205;-63
2023/12/30 10:25:49;;;;;;;3.88;1.10;;;12.10;99.90;;;;;;5014283;28;20178;-63
2023/12/30 10:28:18;;;;;;;4.05;1.20;;;12.30;99.90;;;;;;5044606;28;20264;-63
2023/12/30 10:30:48;;;;;;;5.03;1.45;;;12.30;99.90;;;;;;5054696;28;20184;-63
2023/12/30 10:33:15;;;;;;;3.33;1.25;;;12.40;99.90;;;;;;5030894;28;20205;-63
2023/12/30 10:35:44;;;;;;;4.25;1.45;;;12.50;99.90;;;;;;5043693;28;20178;-63
2023/12/30 10:38:13;;;;;;;4.45;1.10;;;12.60;99.90;;;;;;5034570;28;20169;-63
2023/12/30 10:40:43;;;;;;;5.28;1.40;;;12.80;99.90;;;;;;5034261;28;20170;-63
2023/12/30 10:43:08;;;;;;;3.85;1.30;;;12.90;99.90;;;;;;5034229;28;20212;-63
2023/12/30 10:45:34;;;;;;;3.75;1.42;;;13.10;99.90;;;;;;5033991;28;20190;-63
2023/12/30 10:48:02;;;;;;;3.63;1.00;;;13.10;99.90;;;;;;5050526;28;20599;-64
2023/12/30 10:50:28;;;;;;;2.78;1.30;;;13.20;99.90;;;;;;5033536;28;20197;-63
2023/12/30 10:53:23;;;;;;;4.20;1.15;;;13.10;99.90;;;;;;5034159;28;20296;-63
2023/12/30 10:55:53;;;;;;;4.95;1.30;;;13.20;99.90;;;;;;5034138;28;20177;-64
2023/12/30 10:58:20;;;;;;;3.58;1.15;;;13.20;99.90;;;;;;5033867;28;20209;-63
2023/12/30 11:01:03;;;;;;;6.35;1.33;;;13.10;99.90;;;;;;5034259;28;20197;-63
2023/12/30 11:03:31;;;;;;;6.80;1.58;;;13.20;99.90;;;;;;5034103;28;20297;-63
2023/12/30 11:06:22;;;;;;;2.55;0.98;;;13.10;99.90;;;;;;5033948;28;20174;-63
2023/12/30 11:08:50;;;;;;;5.05;1.48;;;13.20;99.90;;;;;;5034286;28;20209;-64
2023/12/30 11:11:19;;;;;;;2.50;1.02;;;13.20;99.90;;;;;;5030568;28;20233;-64
2023/12/30 11:13:45;;;;;;;5.00;1.40;;;13.30;99.90;;;;;;5024080;28;20193;-63
2023/12/30 11:16:15;;;;;;;5.05;1.33;;;13.30;99.90;;;;;;5034866;28;20178;-63
2023/12/30 11:18:55;;;;;;;3.50;1.35;;;13.40;99.90;;;;;;5038498;28;20205;-63
2023/12/30 11:21:37;;;;;;;2.95;1.15;;;13.50;99.90;;;;;;5037945;28;20178;-63
2023/12/30 11:24:07;;;;;;;4.25;1.33;;;13.50;99.90;;;;;;5037903;28;20220;-63
2023/12/30 11:26:41;;;;;;;4.28;1.20;;;13.50;99.90;;;;;;5037743;28;20169;-63
2023/12/30 11:29:20;;;;;;;5.22;1.30;;;13.50;99.90;;;;;;5037463;28;20209;-64
2023/12/30 11:31:47;;;;;;;4.38;1.50;;;13.60;99.90;;;;;;5034211;28;20298;-63
2023/12/30 11:34:17;;;;;;;5.15;1.60;;;13.70;99.90;;;;;;5037322;28;20206;-63
2023/12/30 11:36:46;;;;;;;4.93;1.30;;;13.80;99.90;;;;;;5037454;28;20292;-69
2023/12/30 11:39:22;;;;;;;5.03;1.48;;;13.90;99.90;;;;;;5037401;28;20220;-69
2023/12/30 11:41:54;;;;;;;3.22;1.10;;;14.00;99.90;;;;;;5036960;28;20211;-68
2023/12/30 11:44:22;;;;;;;6.60;1.30;;;14.10;99.90;;;;;;5038302;28;20186;-69
2023/12/30 11:46:48;;;;;;;3.55;1.30;;;14.20;99.90;;;;;;5036954;28;20213;-70
2023/12/30 11:49:22;;;;;;;4.07;1.50;;;14.30;99.90;;;;;;5031870;28;20182;-69
2023/12/30 11:51:48;;;;;;;4.72;1.48;;;14.30;99.90;;;;;;5037160;28;20174;-70
2023/12/30 11:54:17;;;;;;;4.65;1.60;;;14.30;99.90;;;;;;5036618;28;20205;-70
2023/12/30 11:56:45;;;;;;;4.72;1.35;;;14.40;99.90;;;;;;5036364;28;20178;-69
2023/12/30 11:59:11;;;;;;;6.90;1.40;;;14.40;99.90;;;;;;5041475;28;20193;-70
2023/12/30 12:01:39;;;;;;;5.63;1.23;;;14.50;99.90;;;;;;5036648;28;20181;-70
2023/12/30 12:04:08;;;;;;;3.97;1.27;;;14.70;99.90;;;;;;5037114;28;20176;-69
2023/12/30 12:06:33;;;;;;;3.47;1.30;;;14.60;99.90;;;;;;5036725;28;20219;-71
2023/12/30 12:09:05;;;;;;;5.72;1.40;;;14.70;99.90;;;;;;5036799;28;20174;-69
2023/12/30 12:11:33;;;;;;;7.90;1.80;;;14.60;99.90;;;;;;5053535;28;20181;-69
2023/12/30 12:13:58;;;;;;;4.20;1.10;;;14.60;99.90;;;;;;5036431;28;20198;-69
2023/12/30 12:16:25;;;;;;;3.10;1.30;;;14.50;99.90;;;;;;5035547;28;20240;-70
2023/12/30 12:18:52;;;;;;;4.93;1.48;;;14.40;99.90;;;;;;5036719;28;20193;-69
2023/12/30 12:21:20;;;;;;;4.78;1.70;;;14.30;99.90;;;;;;5036300;28;20205;-68
2023/12/30 12:23:48;;;;;;;7.10;1.50;;;14.20;99.90;;;;;;5036960;28;20166;-70
2023/12/30 12:26:16;;;;;;;5.95;1.17;;;14.20;99.90;;;;;;5035093;28;20257;-69
2023/12/30 12:28:44;;;;;;;4.35;1.30;;;14.20;99.90;;;;;;5033388;28;20236;-68
2023/12/30 12:31:13;;;;;;;3.95;1.20;;;14.30;99.90;;;;;;5035743;28;20441;-69
2023/12/30 12:33:39;;;;;;;5.18;1.52;;;14.30;99.90;;;;;;5035757;28;20316;-69
2023/12/30 12:36:12;;;;;;;6.22;1.70;;;14.40;99.90;;;;;;5036019;28;20217;-69
2023/12/30 12:38:40;;;;;;;5.15;1.30;;;14.50;99.90;;;;;;5052271;28;20232;-68
2023/12/30 12:41:07;;;;;;;3.17;1.00;;;14.60;99.90;;;;;;5033742;28;20202;-70
2023/12/30 12:43:35;;;;;;;2.80;1.20;;;14.80;99.90;;;;;;5035566;28;20182;-70
2023/12/30 12:46:03;;;;;;;2.92;1.17;;;14.90;99.90;;;;;;5035994;28;20205;-68
2023/12/30 12:48:33;;;;;;;4.03;1.30;;;14.90;99.90;;;;;;5032599;28;20195;-69